Hauptseite
METAR-TAF:

METAR-TAF

Flughäfen :

Reschenpass, Italien

Breite: 46-50N, Länge: 010-30E, Höhe: 1800 m

Beobachtung

Neuester Wetterbericht von vor 53 Minuten, um 18:55 UTC
Wind 4 kt aus Nord
Temperatur -3°C
Luftfeuchtigkeit 100%
Luftdruck 1012 hPa
Sichtweite: 2000 m
Geschlossene Wolkendecke in der Höhe von 1500 ft
feuchter Dunst

METAR: LIVE 221855Z 01004KT 2000 BR OVC015 M03/M03 Q1012 RMK OVC VIS MIN 2000

Zeit: 20:48 (19:48 UTC)


TAF: fehlend

Wetterbeobachtungen und Prognosen von mehr als 4000 Flughäfen (METAR und TAF Bericht).

Die verfügbaren Stationen werden durch gelbe und rote Markierungen auf der Karte dargestellt.

Führen Sie die Maus auf sie, um den Namen der Station zu sehen.

Darauf klicken, um die Beobachtung von Wetterbeobachtungen und Prognosen zu sehen.

Um die Karte zu ändern : klicken Sie auf den grünen Tasten mit einem schwarzen Kreuz Zum Vergrößern, auf den grünen Button mit einem Gedankenstrich zu verkleinern, oder auf die grünen Pfeile für benachbarte Karten.


METAR-TAF: